sensor_id;sensor_type;location;lat;lon;timestamp;temperature;humidity
51914;DHT22;37940;53.002;6.930;2022-07-22T00:02:16;15.70;99.90
51914;DHT22;37940;53.002;6.930;2022-07-22T00:04:42;15.70;99.90
51914;DHT22;37940;53.002;6.930;2022-07-22T00:07:08;15.70;99.90
51914;DHT22;37940;53.002;6.930;2022-07-22T00:09:33;15.70;99.90
51914;DHT22;37940;53.002;6.930;2022-07-22T00:11:59;15.80;99.90
51914;DHT22;37940;53.002;6.930;2022-07-22T00:14:25;15.70;99.90
51914;DHT22;37940;53.002;6.930;2022-07-22T00:16:51;15.70;99.90
51914;DHT22;37940;53.002;6.930;2022-07-22T00:19:17;15.70;99.90
51914;DHT22;37940;53.002;6.930;2022-07-22T00:21:43;15.70;99.90
51914;DHT22;37940;53.002;6.930;2022-07-22T00:24:08;15.60;99.90
51914;DHT22;37940;53.002;6.930;2022-07-22T00:26:34;15.50;99.90
51914;DHT22;37940;53.002;6.930;2022-07-22T00:29:00;15.50;99.90
51914;DHT22;37940;53.002;6.930;2022-07-22T00:31:26;15.40;99.90
51914;DHT22;37940;53.002;6.930;2022-07-22T00:33:52;15.40;99.90
51914;DHT22;37940;53.002;6.930;2022-07-22T00:36:18;15.30;99.90
51914;DHT22;37940;53.002;6.930;2022-07-22T00:38:43;15.30;99.90
51914;DHT22;37940;53.002;6.930;2022-07-22T00:41:09;15.30;99.90
51914;DHT22;37940;53.002;6.930;2022-07-22T00:44:00;15.30;99.90
51914;DHT22;37940;53.002;6.930;2022-07-22T00:46:27;15.30;99.90
51914;DHT22;37940;53.002;6.930;2022-07-22T00:48:53;15.30;99.90
51914;DHT22;37940;53.002;6.930;2022-07-22T00:51:21;15.30;99.90
51914;DHT22;37940;53.002;6.930;2022-07-22T00:53:47;15.30;99.90
51914;DHT22;37940;53.002;6.930;2022-07-22T00:56:14;15.30;99.90
51914;DHT22;37940;53.002;6.930;2022-07-22T00:58:41;15.30;99.90
51914;DHT22;37940;53.002;6.930;2022-07-22T01:01:06;15.30;99.90
51914;DHT22;37940;53.002;6.930;2022-07-22T01:03:32;15.30;99.90
51914;DHT22;37940;53.002;6.930;2022-07-22T01:05:58;15.30;99.90
51914;DHT22;37940;53.002;6.930;2022-07-22T01:08:24;15.30;99.90
51914;DHT22;37940;53.002;6.930;2022-07-22T01:10:50;15.30;99.90
51914;DHT22;37940;53.002;6.930;2022-07-22T01:13:16;15.30;99.90
51914;DHT22;37940;53.002;6.930;2022-07-22T01:15:41;15.30;99.90
51914;DHT22;37940;53.002;6.930;2022-07-22T01:18:07;15.30;99.90
51914;DHT22;37940;53.002;6.930;2022-07-22T01:20:35;15.30;99.90
51914;DHT22;37940;53.002;6.930;2022-07-22T01:23:01;15.30;99.90
51914;DHT22;37940;53.002;6.930;2022-07-22T01:25:26;15.30;99.90
51914;DHT22;37940;53.002;6.930;2022-07-22T01:27:53;15.30;99.90
51914;DHT22;37940;53.002;6.930;2022-07-22T01:30:18;15.30;99.90
51914;DHT22;37940;53.002;6.930;2022-07-22T01:32:44;15.30;99.90
51914;DHT22;37940;53.002;6.930;2022-07-22T01:35:10;15.30;99.90
51914;DHT22;37940;53.002;6.930;2022-07-22T01:37:35;15.30;99.90
51914;DHT22;37940;53.002;6.930;2022-07-22T01:40:02;15.30;99.90
51914;DHT22;37940;53.002;6.930;2022-07-22T01:42:28;15.30;99.90
51914;DHT22;37940;53.002;6.930;2022-07-22T01:44:54;15.30;99.90
51914;DHT22;37940;53.002;6.930;2022-07-22T01:47:19;15.30;99.90
51914;DHT22;37940;53.002;6.930;2022-07-22T01:49:45;15.30;99.90
51914;DHT22;37940;53.002;6.930;2022-07-22T01:52:11;15.30;99.90
51914;DHT22;37940;53.002;6.930;2022-07-22T01:54:37;15.30;99.90
51914;DHT22;37940;53.002;6.930;2022-07-22T01:57:03;15.30;99.90
51914;DHT22;37940;53.002;6.930;2022-07-22T01:59:28;15.30;99.90
51914;DHT22;37940;53.002;6.930;2022-07-22T02:01:54;15.30;99.90
51914;DHT22;37940;53.002;6.930;2022-07-22T02:04:20;15.30;99.90
51914;DHT22;37940;53.002;6.930;2022-07-22T02:06:45;15.30;99.90
51914;DHT22;37940;53.002;6.930;2022-07-22T02:09:12;15.30;99.90
51914;DHT22;37940;53.002;6.930;2022-07-22T02:11:37;15.30;99.90
51914;DHT22;37940;53.002;6.930;2022-07-22T02:14:03;15.30;99.90
51914;DHT22;37940;53.002;6.930;2022-07-22T02:16:29;15.30;99.90
51914;DHT22;37940;53.002;6.930;2022-07-22T02:18:55;15.20;99.90
51914;DHT22;37940;53.002;6.930;2022-07-22T02:21:21;15.30;99.90
51914;DHT22;37940;53.002;6.930;2022-07-22T02:23:46;15.20;99.90
51914;DHT22;37940;53.002;6.930;2022-07-22T02:26:12;15.20;99.90
51914;DHT22;37940;53.002;6.930;2022-07-22T02:28:38;15.20;99.90
51914;DHT22;37940;53.002;6.930;2022-07-22T02:31:04;15.20;99.90
51914;DHT22;37940;53.002;6.930;2022-07-22T02:33:30;15.20;99.90
51914;DHT22;37940;53.002;6.930;2022-07-22T02:35:56;15.20;99.90
51914;DHT22;37940;53.002;6.930;2022-07-22T02:38:22;15.20;99.90
51914;DHT22;37940;53.002;6.930;2022-07-22T02:40:47;15.20;99.90
51914;DHT22;37940;53.002;6.930;2022-07-22T02:43:13;15.20;99.90
51914;DHT22;37940;53.002;6.930;2022-07-22T02:45:39;15.20;99.90
51914;DHT22;37940;53.002;6.930;2022-07-22T02:48:05;15.20;99.90
51914;DHT22;37940;53.002;6.930;2022-07-22T02:50:31;15.20;99.90
51914;DHT22;37940;53.002;6.930;2022-07-22T02:52:58;15.20;99.90
51914;DHT22;37940;53.002;6.930;2022-07-22T02:55:24;15.20;99.90
51914;DHT22;37940;53.002;6.930;2022-07-22T02:57:50;15.20;99.90
51914;DHT22;37940;53.002;6.930;2022-07-22T03:00:16;15.20;99.90
51914;DHT22;37940;53.002;6.930;2022-07-22T03:02:42;15.20;99.90
51914;DHT22;37940;53.002;6.930;2022-07-22T03:05:08;15.20;99.90
51914;DHT22;37940;53.002;6.930;2022-07-22T03:07:35;15.20;99.90
51914;DHT22;37940;53.002;6.930;2022-07-22T03:10:00;15.20;99.90
51914;DHT22;37940;53.002;6.930;2022-07-22T03:12:26;15.10;99.90
51914;DHT22;37940;53.002;6.930;2022-07-22T03:14:52;15.10;99.90
51914;DHT22;37940;53.002;6.930;2022-07-22T03:17:18;15.20;99.90
51914;DHT22;37940;53.002;6.930;2022-07-22T03:19:43;15.20;99.90
51914;DHT22;37940;53.002;6.930;2022-07-22T03:22:09;15.20;99.90
51914;DHT22;37940;53.002;6.930;2022-07-22T03:24:35;15.10;99.90
51914;DHT22;37940;53.002;6.930;2022-07-22T03:27:00;15.10;99.90
51914;DHT22;37940;53.002;6.930;2022-07-22T03:29:26;15.10;99.90
51914;DHT22;37940;53.002;6.930;2022-07-22T03:31:52;15.10;99.90
51914;DHT22;37940;53.002;6.930;2022-07-22T03:34:17;15.10;99.90
51914;DHT22;37940;53.002;6.930;2022-07-22T03:36:43;15.10;99.90
51914;DHT22;37940;53.002;6.930;2022-07-22T03:39:09;15.10;99.90
51914;DHT22;37940;53.002;6.930;2022-07-22T03:41:34;15.10;99.90
51914;DHT22;37940;53.002;6.930;2022-07-22T03:44:00;15.10;99.90
51914;DHT22;37940;53.002;6.930;2022-07-22T03:46:26;15.10;99.90
51914;DHT22;37940;53.002;6.930;2022-07-22T03:48:51;15.10;99.90
51914;DHT22;37940;53.002;6.930;2022-07-22T03:51:17;15.10;99.90
51914;DHT22;37940;53.002;6.930;2022-07-22T03:53:43;15.10;99.90
51914;DHT22;37940;53.002;6.930;2022-07-22T03:56:09;15.10;99.90
51914;DHT22;37940;53.002;6.930;2022-07-22T03:58:34;15.10;99.90
51914;DHT22;37940;53.002;6.930;2022-07-22T04:01:00;15.10;99.90
51914;DHT22;37940;53.002;6.930;2022-07-22T04:03:26;15.10;99.90
51914;DHT22;37940;53.002;6.930;2022-07-22T04:05:51;15.10;99.90
51914;DHT22;37940;53.002;6.930;2022-07-22T04:08:18;15.10;99.90
51914;DHT22;37940;53.002;6.930;2022-07-22T04:10:44;15.10;99.90
51914;DHT22;37940;53.002;6.930;2022-07-22T04:13:10;15.10;99.90
51914;DHT22;37940;53.002;6.930;2022-07-22T04:15:36;15.10;99.90
51914;DHT22;37940;53.002;6.930;2022-07-22T04:18:02;15.10;99.90
51914;DHT22;37940;53.002;6.930;2022-07-22T04:20:27;15.20;99.90
51914;DHT22;37940;53.002;6.930;2022-07-22T04:22:53;15.20;99.90
51914;DHT22;37940;53.002;6.930;2022-07-22T04:25:19;15.20;99.90
51914;DHT22;37940;53.002;6.930;2022-07-22T04:27:45;15.20;99.90
51914;DHT22;37940;53.002;6.930;2022-07-22T04:30:11;15.20;99.90
51914;DHT22;37940;53.002;6.930;2022-07-22T04:32:37;15.20;99.90
51914;DHT22;37940;53.002;6.930;2022-07-22T04:35:03;15.30;99.90
51914;DHT22;37940;53.002;6.930;2022-07-22T04:37:30;15.30;99.90
51914;DHT22;37940;53.002;6.930;2022-07-22T04:39:56;15.20;99.90
51914;DHT22;37940;53.002;6.930;2022-07-22T04:42:21;15.30;99.90
51914;DHT22;37940;53.002;6.930;2022-07-22T04:44:47;15.30;99.90
51914;DHT22;37940;53.002;6.930;2022-07-22T04:47:13;15.40;99.90
51914;DHT22;37940;53.002;6.930;2022-07-22T04:49:39;15.30;99.90
51914;DHT22;37940;53.002;6.930;2022-07-22T04:52:05;15.30;99.90
51914;DHT22;37940;53.002;6.930;2022-07-22T04:54:31;15.30;99.90
51914;DHT22;37940;53.002;6.930;2022-07-22T04:56:56;15.30;99.90
51914;DHT22;37940;53.002;6.930;2022-07-22T04:59:22;15.40;99.90
51914;DHT22;37940;53.002;6.930;2022-07-22T05:01:48;15.40;99.90
51914;DHT22;37940;53.002;6.930;2022-07-22T05:04:14;15.40;99.90
51914;DHT22;37940;53.002;6.930;2022-07-22T05:06:39;15.40;99.90
51914;DHT22;37940;53.002;6.930;2022-07-22T05:09:05;15.40;99.90
51914;DHT22;37940;53.002;6.930;2022-07-22T05:11:31;15.40;99.90
51914;DHT22;37940;53.002;6.930;2022-07-22T05:13:57;15.50;99.90
51914;DHT22;37940;53.002;6.930;2022-07-22T05:16:23;15.50;99.90
51914;DHT22;37940;53.002;6.930;2022-07-22T05:18:49;15.50;99.90
51914;DHT22;37940;53.002;6.930;2022-07-22T05:21:14;15.50;99.90
51914;DHT22;37940;53.002;6.930;2022-07-22T05:23:40;15.60;99.90
51914;DHT22;37940;53.002;6.930;2022-07-22T05:26:06;15.60;99.90
51914;DHT22;37940;53.002;6.930;2022-07-22T05:28:32;15.60;99.90
51914;DHT22;37940;53.002;6.930;2022-07-22T05:30:57;15.60;99.90
51914;DHT22;37940;53.002;6.930;2022-07-22T05:33:23;15.70;99.90
51914;DHT22;37940;53.002;6.930;2022-07-22T05:35:49;15.70;99.90
51914;DHT22;37940;53.002;6.930;2022-07-22T05:38:14;15.70;99.90
51914;DHT22;37940;53.002;6.930;2022-07-22T05:40:40;15.80;99.90
51914;DHT22;37940;53.002;6.930;2022-07-22T05:43:06;15.90;99.90
51914;DHT22;37940;53.002;6.930;2022-07-22T05:45:32;15.80;99.90
51914;DHT22;37940;53.002;6.930;2022-07-22T05:47:57;15.90;99.90
51914;DHT22;37940;53.002;6.930;2022-07-22T05:50:23;16.00;99.90
51914;DHT22;37940;53.002;6.930;2022-07-22T05:52:49;16.00;99.90
51914;DHT22;37940;53.002;6.930;2022-07-22T05:55:15;16.00;99.90
51914;DHT22;37940;53.002;6.930;2022-07-22T05:57:40;16.00;99.90
51914;DHT22;37940;53.002;6.930;2022-07-22T06:00:07;16.10;99.90
51914;DHT22;37940;53.002;6.930;2022-07-22T06:02:32;16.10;99.90
51914;DHT22;37940;53.002;6.930;2022-07-22T06:04:58;16.10;99.90
51914;DHT22;37940;53.002;6.930;2022-07-22T06:07:29;16.20;99.90
51914;DHT22;37940;53.002;6.930;2022-07-22T06:09:54;16.30;99.90
51914;DHT22;37940;53.002;6.930;2022-07-22T06:12:20;16.30;99.90
51914;DHT22;37940;53.002;6.930;2022-07-22T06:14:46;16.40;99.90
51914;DHT22;37940;53.002;6.930;2022-07-22T06:17:13;16.40;99.90
51914;DHT22;37940;53.002;6.930;2022-07-22T06:19:39;16.40;99.90
51914;DHT22;37940;53.002;6.930;2022-07-22T06:22:05;16.50;99.90
51914;DHT22;37940;53.002;6.930;2022-07-22T06:24:30;16.50;99.90
51914;DHT22;37940;53.002;6.930;2022-07-22T06:26:56;16.50;99.90
51914;DHT22;37940;53.002;6.930;2022-07-22T06:29:22;16.60;99.90
51914;DHT22;37940;53.002;6.930;2022-07-22T06:31:48;16.60;99.90
51914;DHT22;37940;53.002;6.930;2022-07-22T06:34:13;16.70;99.90
51914;DHT22;37940;53.002;6.930;2022-07-22T06:36:39;16.70;99.90
51914;DHT22;37940;53.002;6.930;2022-07-22T06:39:05;16.70;99.90
51914;DHT22;37940;53.002;6.930;2022-07-22T06:41:31;16.70;99.90
51914;DHT22;37940;53.002;6.930;2022-07-22T06:43:57;16.80;99.90
51914;DHT22;37940;53.002;6.930;2022-07-22T06:46:23;16.90;99.90
51914;DHT22;37940;53.002;6.930;2022-07-22T06:48:48;16.90;99.90
51914;DHT22;37940;53.002;6.930;2022-07-22T06:51:14;16.90;99.90
51914;DHT22;37940;53.002;6.930;2022-07-22T06:53:40;17.00;99.90
51914;DHT22;37940;53.002;6.930;2022-07-22T06:56:06;17.00;99.90
51914;DHT22;37940;53.002;6.930;2022-07-22T06:58:32;17.10;99.90
51914;DHT22;37940;53.002;6.930;2022-07-22T07:00:57;17.10;99.90
51914;DHT22;37940;53.002;6.930;2022-07-22T07:03:23;17.20;99.90
51914;DHT22;37940;53.002;6.930;2022-07-22T07:05:51;17.20;99.90
51914;DHT22;37940;53.002;6.930;2022-07-22T07:08:17;17.20;99.90
51914;DHT22;37940;53.002;6.930;2022-07-22T07:10:43;17.20;99.90
51914;DHT22;37940;53.002;6.930;2022-07-22T07:13:08;17.20;99.90
51914;DHT22;37940;53.002;6.930;2022-07-22T07:15:34;17.30;99.90
51914;DHT22;37940;53.002;6.930;2022-07-22T07:18:00;17.40;99.90
51914;DHT22;37940;53.002;6.930;2022-07-22T07:20:26;17.50;99.90
51914;DHT22;37940;53.002;6.930;2022-07-22T07:22:52;17.60;99.90
51914;DHT22;37940;53.002;6.930;2022-07-22T07:25:18;17.60;99.90
51914;DHT22;37940;53.002;6.930;2022-07-22T07:27:43;17.60;99.90
51914;DHT22;37940;53.002;6.930;2022-07-22T07:30:10;17.60;99.90
51914;DHT22;37940;53.002;6.930;2022-07-22T07:32:36;17.70;99.90
51914;DHT22;37940;53.002;6.930;2022-07-22T07:35:03;17.70;99.90
51914;DHT22;37940;53.002;6.930;2022-07-22T07:37:29;17.70;99.90
51914;DHT22;37940;53.002;6.930;2022-07-22T07:39:55;17.70;99.90
51914;DHT22;37940;53.002;6.930;2022-07-22T07:42:20;17.60;99.90
51914;DHT22;37940;53.002;6.930;2022-07-22T07:44:46;17.70;99.90
51914;DHT22;37940;53.002;6.930;2022-07-22T07:47:12;17.80;99.90
51914;DHT22;37940;53.002;6.930;2022-07-22T07:49:43;17.90;99.90
51914;DHT22;37940;53.002;6.930;2022-07-22T07:52:09;17.90;99.90
51914;DHT22;37940;53.002;6.930;2022-07-22T07:54:35;17.90;99.90
51914;DHT22;37940;53.002;6.930;2022-07-22T07:57:01;18.00;99.90
51914;DHT22;37940;53.002;6.930;2022-07-22T07:59:27;17.90;99.90
51914;DHT22;37940;53.002;6.930;2022-07-22T08:01:52;18.00;99.90
51914;DHT22;37940;53.002;6.930;2022-07-22T08:04:18;18.00;99.90
51914;DHT22;37940;53.002;6.930;2022-07-22T08:06:44;18.00;99.90
51914;DHT22;37940;53.002;6.930;2022-07-22T08:09:09;18.20;99.90
51914;DHT22;37940;53.002;6.930;2022-07-22T08:11:35;18.40;99.90
51914;DHT22;37940;53.002;6.930;2022-07-22T08:14:01;18.50;99.90
51914;DHT22;37940;53.002;6.930;2022-07-22T08:16:27;18.70;99.90
51914;DHT22;37940;53.002;6.930;2022-07-22T08:18:53;18.80;99.90
51914;DHT22;37940;53.002;6.930;2022-07-22T08:21:18;19.00;99.90
51914;DHT22;37940;53.002;6.930;2022-07-22T08:23:44;19.00;99.90
51914;DHT22;37940;53.002;6.930;2022-07-22T08:26:10;19.10;99.90
51914;DHT22;37940;53.002;6.930;2022-07-22T08:28:35;19.10;99.90
51914;DHT22;37940;53.002;6.930;2022-07-22T08:31:01;19.10;99.90
51914;DHT22;37940;53.002;6.930;2022-07-22T08:33:27;19.00;99.90
51914;DHT22;37940;53.002;6.930;2022-07-22T08:35:53;18.90;99.90
51914;DHT22;37940;53.002;6.930;2022-07-22T08:38:18;18.90;99.90
51914;DHT22;37940;53.002;6.930;2022-07-22T08:40:44;18.80;99.90
51914;DHT22;37940;53.002;6.930;2022-07-22T08:43:10;18.70;99.90
51914;DHT22;37940;53.002;6.930;2022-07-22T08:45:36;18.70;99.90
51914;DHT22;37940;53.002;6.930;2022-07-22T08:48:02;18.60;99.90
51914;DHT22;37940;53.002;6.930;2022-07-22T08:50:31;18.60;99.90
51914;DHT22;37940;53.002;6.930;2022-07-22T08:52:57;18.60;99.90
51914;DHT22;37940;53.002;6.930;2022-07-22T08:55:23;18.50;99.90
51914;DHT22;37940;53.002;6.930;2022-07-22T08:57:49;18.50;99.90
51914;DHT22;37940;53.002;6.930;2022-07-22T09:00:19;18.50;99.90
51914;DHT22;37940;53.002;6.930;2022-07-22T09:02:46;18.40;99.90
51914;DHT22;37940;53.002;6.930;2022-07-22T09:05:16;18.50;99.90
51914;DHT22;37940;53.002;6.930;2022-07-22T09:07:44;18.70;99.90
51914;DHT22;37940;53.002;6.930;2022-07-22T09:10:16;18.80;99.90
51914;DHT22;37940;53.002;6.930;2022-07-22T09:12:56;18.90;99.90
51914;DHT22;37940;53.002;6.930;2022-07-22T09:15:33;19.00;99.90
51914;DHT22;37940;53.002;6.930;2022-07-22T09:18:03;19.10;99.90
51914;DHT22;37940;53.002;6.930;2022-07-22T09:20:29;19.10;99.90
51914;DHT22;37940;53.002;6.930;2022-07-22T09:22:55;19.10;99.90
51914;DHT22;37940;53.002;6.930;2022-07-22T09:25:31;19.20;99.90
51914;DHT22;37940;53.002;6.930;2022-07-22T09:30:34;19.30;99.90
51914;DHT22;37940;53.002;6.930;2022-07-22T09:33:00;19.30;99.90
51914;DHT22;37940;53.002;6.930;2022-07-22T09:35:28;19.30;99.90
51914;DHT22;37940;53.002;6.930;2022-07-22T09:37:59;19.20;99.90
51914;DHT22;37940;53.002;6.930;2022-07-22T09:40:27;19.20;99.90
51914;DHT22;37940;53.002;6.930;2022-07-22T09:43:05;19.00;99.90
51914;DHT22;37940;53.002;6.930;2022-07-22T09:45:33;19.00;99.90
51914;DHT22;37940;53.002;6.930;2022-07-22T09:48:00;18.90;99.90
51914;DHT22;37940;53.002;6.930;2022-07-22T09:50:31;18.80;99.90
51914;DHT22;37940;53.002;6.930;2022-07-22T09:52:58;18.80;99.90
51914;DHT22;37940;53.002;6.930;2022-07-22T09:55:26;18.90;99.90
51914;DHT22;37940;53.002;6.930;2022-07-22T09:57:54;19.00;99.90
51914;DHT22;37940;53.002;6.930;2022-07-22T10:00:22;19.10;99.90
51914;DHT22;37940;53.002;6.930;2022-07-22T10:02:54;19.10;99.90
51914;DHT22;37940;53.002;6.930;2022-07-22T10:05:32;19.30;99.90
51914;DHT22;37940;53.002;6.930;2022-07-22T10:08:00;19.60;99.90
51914;DHT22;37940;53.002;6.930;2022-07-22T10:10:28;19.80;99.90
51914;DHT22;37940;53.002;6.930;2022-07-22T10:12:55;20.20;99.90
51914;DHT22;37940;53.002;6.930;2022-07-22T10:15:22;20.40;99.90
51914;DHT22;37940;53.002;6.930;2022-07-22T10:17:51;20.40;99.90
51914;DHT22;37940;53.002;6.930;2022-07-22T10:20:19;20.30;99.90
51914;DHT22;37940;53.002;6.930;2022-07-22T10:25:20;20.00;99.90
51914;DHT22;37940;53.002;6.930;2022-07-22T10:27:48;19.90;99.90
51914;DHT22;37940;53.002;6.930;2022-07-22T10:30:17;19.70;99.90
51914;DHT22;37940;53.002;6.930;2022-07-22T10:32:44;19.60;99.90
51914;DHT22;37940;53.002;6.930;2022-07-22T10:40:12;19.20;99.90
51914;DHT22;37940;53.002;6.930;2022-07-22T10:45:27;19.00;99.90
51914;DHT22;37940;53.002;6.930;2022-07-22T10:47:54;18.90;99.90
51914;DHT22;37940;53.002;6.930;2022-07-22T10:53:02;18.70;99.90
51914;DHT22;37940;53.002;6.930;2022-07-22T10:55:27;18.60;99.90
51914;DHT22;37940;53.002;6.930;2022-07-22T10:57:53;18.50;99.90
51914;DHT22;37940;53.002;6.930;2022-07-22T11:00:19;18.50;99.90
51914;DHT22;37940;53.002;6.930;2022-07-22T11:02:45;18.60;99.90
51914;DHT22;37940;53.002;6.930;2022-07-22T11:05:11;18.70;99.90
51914;DHT22;37940;53.002;6.930;2022-07-22T11:07:44;18.80;99.90
51914;DHT22;37940;53.002;6.930;2022-07-22T11:10:16;18.90;99.90
51914;DHT22;37940;53.002;6.930;2022-07-22T11:12:42;19.00;99.90
51914;DHT22;37940;53.002;6.930;2022-07-22T11:15:09;19.10;99.90
51914;DHT22;37940;53.002;6.930;2022-07-22T11:17:36;19.10;99.90
51914;DHT22;37940;53.002;6.930;2022-07-22T11:20:11;19.20;99.90
51914;DHT22;37940;53.002;6.930;2022-07-22T11:22:37;19.30;99.90
51914;DHT22;37940;53.002;6.930;2022-07-22T11:25:06;19.40;99.90
51914;DHT22;37940;53.002;6.930;2022-07-22T11:27:32;19.50;99.90
51914;DHT22;37940;53.002;6.930;2022-07-22T11:29:58;19.60;99.90
51914;DHT22;37940;53.002;6.930;2022-07-22T11:32:26;19.60;99.90
51914;DHT22;37940;53.002;6.930;2022-07-22T11:34:53;19.60;99.90
51914;DHT22;37940;53.002;6.930;2022-07-22T11:37:24;19.60;99.90
51914;DHT22;37940;53.002;6.930;2022-07-22T11:39:51;19.70;99.90
51914;DHT22;37940;53.002;6.930;2022-07-22T11:42:17;19.60;99.90
51914;DHT22;37940;53.002;6.930;2022-07-22T11:44:43;19.50;99.90
51914;DHT22;37940;53.002;6.930;2022-07-22T11:47:10;19.40;99.90
51914;DHT22;37940;53.002;6.930;2022-07-22T11:49:37;19.40;99.90
51914;DHT22;37940;53.002;6.930;2022-07-22T11:52:07;19.40;99.90
51914;DHT22;37940;53.002;6.930;2022-07-22T11:54:34;19.40;99.90
51914;DHT22;37940;53.002;6.930;2022-07-22T11:57:01;19.50;99.90
51914;DHT22;37940;53.002;6.930;2022-07-22T11:59:27;19.50;99.90
51914;DHT22;37940;53.002;6.930;2022-07-22T12:01:53;19.50;99.90
51914;DHT22;37940;53.002;6.930;2022-07-22T12:04:21;19.50;99.90
51914;DHT22;37940;53.002;6.930;2022-07-22T12:06:48;19.60;99.90
51914;DHT22;37940;53.002;6.930;2022-07-22T12:09:16;19.60;99.90
51914;DHT22;37940;53.002;6.930;2022-07-22T12:11:48;19.60;99.90
51914;DHT22;37940;53.002;6.930;2022-07-22T12:14:19;19.70;99.90
51914;DHT22;37940;53.002;6.930;2022-07-22T12:17:05;19.80;99.90
51914;DHT22;37940;53.002;6.930;2022-07-22T12:19:33;19.80;99.90
51914;DHT22;37940;53.002;6.930;2022-07-22T12:22:19;19.90;99.90
51914;DHT22;37940;53.002;6.930;2022-07-22T12:24:56;20.00;99.90
51914;DHT22;37940;53.002;6.930;2022-07-22T12:27:23;20.00;99.90
51914;DHT22;37940;53.002;6.930;2022-07-22T12:29:49;20.10;99.90
51914;DHT22;37940;53.002;6.930;2022-07-22T12:32:17;20.20;99.90
51914;DHT22;37940;53.002;6.930;2022-07-22T12:34:47;20.10;99.90
51914;DHT22;37940;53.002;6.930;2022-07-22T12:37:17;20.10;99.90
51914;DHT22;37940;53.002;6.930;2022-07-22T12:39:56;20.10;99.90
51914;DHT22;37940;53.002;6.930;2022-07-22T12:42:24;20.10;99.90
51914;DHT22;37940;53.002;6.930;2022-07-22T12:45:02;20.10;99.90
51914;DHT22;37940;53.002;6.930;2022-07-22T12:47:39;20.10;99.90
51914;DHT22;37940;53.002;6.930;2022-07-22T12:53:01;20.40;99.90
51914;DHT22;37940;53.002;6.930;2022-07-22T12:55:32;20.40;99.90
51914;DHT22;37940;53.002;6.930;2022-07-22T12:57:58;20.50;99.90
51914;DHT22;37940;53.002;6.930;2022-07-22T13:00:31;20.50;99.90
51914;DHT22;37940;53.002;6.930;2022-07-22T13:02:57;20.60;99.90
51914;DHT22;37940;53.002;6.930;2022-07-22T13:05:24;20.60;99.90
51914;DHT22;37940;53.002;6.930;2022-07-22T13:07:51;20.60;99.90
51914;DHT22;37940;53.002;6.930;2022-07-22T13:10:19;20.50;99.90
51914;DHT22;37940;53.002;6.930;2022-07-22T13:12:45;20.40;99.90
51914;DHT22;37940;53.002;6.930;2022-07-22T13:15:11;20.40;99.90
51914;DHT22;37940;53.002;6.930;2022-07-22T13:17:38;20.40;99.90
51914;DHT22;37940;53.002;6.930;2022-07-22T13:20:05;20.30;99.90
51914;DHT22;37940;53.002;6.930;2022-07-22T13:22:31;20.20;99.90
51914;DHT22;37940;53.002;6.930;2022-07-22T13:24:57;20.10;99.90
51914;DHT22;37940;53.002;6.930;2022-07-22T13:27:23;20.00;99.90
51914;DHT22;37940;53.002;6.930;2022-07-22T13:29:49;20.10;99.90
51914;DHT22;37940;53.002;6.930;2022-07-22T13:32:14;20.00;99.90
51914;DHT22;37940;53.002;6.930;2022-07-22T13:34:40;20.10;99.90
51914;DHT22;37940;53.002;6.930;2022-07-22T13:37:06;20.00;99.90
51914;DHT22;37940;53.002;6.930;2022-07-22T13:39:32;20.00;99.90
51914;DHT22;37940;53.002;6.930;2022-07-22T13:41:58;20.00;99.90
51914;DHT22;37940;53.002;6.930;2022-07-22T13:44:24;20.10;99.90
51914;DHT22;37940;53.002;6.930;2022-07-22T13:46:50;20.20;99.90
51914;DHT22;37940;53.002;6.930;2022-07-22T13:49:15;20.20;99.90
51914;DHT22;37940;53.002;6.930;2022-07-22T13:51:41;20.20;99.90
51914;DHT22;37940;53.002;6.930;2022-07-22T13:54:07;20.10;99.90
51914;DHT22;37940;53.002;6.930;2022-07-22T13:56:33;20.00;99.90
51914;DHT22;37940;53.002;6.930;2022-07-22T13:59:00;19.90;99.90
51914;DHT22;37940;53.002;6.930;2022-07-22T14:01:27;19.70;99.90
51914;DHT22;37940;53.002;6.930;2022-07-22T14:03:52;19.60;99.90
51914;DHT22;37940;53.002;6.930;2022-07-22T14:06:18;19.50;99.90
51914;DHT22;37940;53.002;6.930;2022-07-22T14:08:44;19.40;99.90
51914;DHT22;37940;53.002;6.930;2022-07-22T14:11:09;19.30;99.90
51914;DHT22;37940;53.002;6.930;2022-07-22T14:13:35;19.20;99.90
51914;DHT22;37940;53.002;6.930;2022-07-22T14:16:01;19.20;99.90
51914;DHT22;37940;53.002;6.930;2022-07-22T14:18:47;19.10;99.90
51914;DHT22;37940;53.002;6.930;2022-07-22T14:21:13;19.10;99.90
51914;DHT22;37940;53.002;6.930;2022-07-22T14:23:39;19.10;99.90
51914;DHT22;37940;53.002;6.930;2022-07-22T14:26:05;19.10;99.90
51914;DHT22;37940;53.002;6.930;2022-07-22T14:28:31;19.10;99.90
51914;DHT22;37940;53.002;6.930;2022-07-22T14:30:57;19.10;99.90
51914;DHT22;37940;53.002;6.930;2022-07-22T14:33:23;19.20;99.90
51914;DHT22;37940;53.002;6.930;2022-07-22T14:35:48;19.30;99.90
51914;DHT22;37940;53.002;6.930;2022-07-22T14:38:14;19.30;99.90
51914;DHT22;37940;53.002;6.930;2022-07-22T14:40:40;19.40;99.90
51914;DHT22;37940;53.002;6.930;2022-07-22T14:43:06;19.40;99.90
51914;DHT22;37940;53.002;6.930;2022-07-22T14:45:31;19.50;99.90
51914;DHT22;37940;53.002;6.930;2022-07-22T14:48:00;19.60;99.90
51914;DHT22;37940;53.002;6.930;2022-07-22T14:50:25;19.60;99.90
51914;DHT22;37940;53.002;6.930;2022-07-22T14:52:51;19.70;99.90
51914;DHT22;37940;53.002;6.930;2022-07-22T14:55:17;19.70;99.90
51914;DHT22;37940;53.002;6.930;2022-07-22T14:57:42;19.60;99.90
51914;DHT22;37940;53.002;6.930;2022-07-22T15:00:08;19.60;99.90
51914;DHT22;37940;53.002;6.930;2022-07-22T15:02:35;19.60;99.90
51914;DHT22;37940;53.002;6.930;2022-07-22T15:05:00;19.60;99.90
51914;DHT22;37940;53.002;6.930;2022-07-22T15:07:26;19.60;99.90
51914;DHT22;37940;53.002;6.930;2022-07-22T15:09:52;19.50;99.90
51914;DHT22;37940;53.002;6.930;2022-07-22T15:12:17;19.50;99.90
51914;DHT22;37940;53.002;6.930;2022-07-22T15:14:43;19.40;99.90
51914;DHT22;37940;53.002;6.930;2022-07-22T15:17:09;19.30;99.90
51914;DHT22;37940;53.002;6.930;2022-07-22T15:19:35;19.30;99.90
51914;DHT22;37940;53.002;6.930;2022-07-22T15:22:00;19.20;99.90
51914;DHT22;37940;53.002;6.930;2022-07-22T15:24:26;19.10;99.90
51914;DHT22;37940;53.002;6.930;2022-07-22T15:26:52;19.10;99.90
51914;DHT22;37940;53.002;6.930;2022-07-22T15:29:17;19.10;99.90
51914;DHT22;37940;53.002;6.930;2022-07-22T15:31:43;19.10;99.90
51914;DHT22;37940;53.002;6.930;2022-07-22T15:34:09;19.00;99.90
51914;DHT22;37940;53.002;6.930;2022-07-22T15:36:35;19.00;99.90
51914;DHT22;37940;53.002;6.930;2022-07-22T15:39:00;19.00;99.90
51914;DHT22;37940;53.002;6.930;2022-07-22T15:41:26;19.00;99.90
51914;DHT22;37940;53.002;6.930;2022-07-22T15:43:53;18.90;99.90
51914;DHT22;37940;53.002;6.930;2022-07-22T15:46:19;18.90;99.90